sensor_id;sensor_type;location;lat;lon;timestamp;temperature;humidity
13610;DHT22;6876;50.788;4.940;2023-09-08T00:01:03;20.40;99.90
13610;DHT22;6876;50.788;4.940;2023-09-08T00:03:53;20.40;99.90
13610;DHT22;6876;50.788;4.940;2023-09-08T00:06:40;20.40;1.00
13610;DHT22;6876;50.788;4.940;2023-09-08T00:09:27;20.40;1.00
13610;DHT22;6876;50.788;4.940;2023-09-08T00:12:15;20.30;1.00
13610;DHT22;6876;50.788;4.940;2023-09-08T00:15:02;20.10;99.90
13610;DHT22;6876;50.788;4.940;2023-09-08T00:17:50;20.00;99.90
13610;DHT22;6876;50.788;4.940;2023-09-08T00:20:39;19.80;1.00
13610;DHT22;6876;50.788;4.940;2023-09-08T00:23:27;19.60;1.00
13610;DHT22;6876;50.788;4.940;2023-09-08T00:26:15;19.70;1.00
13610;DHT22;6876;50.788;4.940;2023-09-08T00:29:02;19.90;1.00
13610;DHT22;6876;50.788;4.940;2023-09-08T00:31:49;20.00;1.00
13610;DHT22;6876;50.788;4.940;2023-09-08T00:34:37;20.00;1.00
13610;DHT22;6876;50.788;4.940;2023-09-08T00:37:25;19.90;1.00
13610;DHT22;6876;50.788;4.940;2023-09-08T00:40:13;19.70;1.00
13610;DHT22;6876;50.788;4.940;2023-09-08T00:43:00;19.60;1.00
13610;DHT22;6876;50.788;4.940;2023-09-08T00:45:48;19.50;1.00
13610;DHT22;6876;50.788;4.940;2023-09-08T00:48:35;19.50;1.00
13610;DHT22;6876;50.788;4.940;2023-09-08T00:51:23;19.50;1.00
13610;DHT22;6876;50.788;4.940;2023-09-08T00:54:12;19.50;1.00
13610;DHT22;6876;50.788;4.940;2023-09-08T00:57:01;19.40;1.00
13610;DHT22;6876;50.788;4.940;2023-09-08T00:59:49;19.40;17.30
13610;DHT22;6876;50.788;4.940;2023-09-08T01:02:36;19.30;32.50
13610;DHT22;6876;50.788;4.940;2023-09-08T01:05:23;19.30;56.50
13610;DHT22;6876;50.788;4.940;2023-09-08T01:08:11;19.20;96.50
13610;DHT22;6876;50.788;4.940;2023-09-08T01:11:00;19.10;99.90
13610;DHT22;6876;50.788;4.940;2023-09-08T01:13:47;19.30;99.90
13610;DHT22;6876;50.788;4.940;2023-09-08T01:16:35;19.40;99.90
13610;DHT22;6876;50.788;4.940;2023-09-08T01:19:23;19.30;99.90
13610;DHT22;6876;50.788;4.940;2023-09-08T01:22:24;19.20;99.90
13610;DHT22;6876;50.788;4.940;2023-09-08T01:25:21;19.10;99.90
13610;DHT22;6876;50.788;4.940;2023-09-08T01:28:10;19.00;99.90
13610;DHT22;6876;50.788;4.940;2023-09-08T01:30:58;19.00;99.90
13610;DHT22;6876;50.788;4.940;2023-09-08T01:33:46;18.90;99.90
13610;DHT22;6876;50.788;4.940;2023-09-08T01:36:34;18.90;99.90
13610;DHT22;6876;50.788;4.940;2023-09-08T01:39:21;18.90;99.90
13610;DHT22;6876;50.788;4.940;2023-09-08T01:42:10;19.00;99.90
13610;DHT22;6876;50.788;4.940;2023-09-08T01:44:57;19.10;99.90
13610;DHT22;6876;50.788;4.940;2023-09-08T01:47:44;19.10;99.90
13610;DHT22;6876;50.788;4.940;2023-09-08T01:50:32;19.20;99.90
13610;DHT22;6876;50.788;4.940;2023-09-08T01:53:19;19.40;99.90
13610;DHT22;6876;50.788;4.940;2023-09-08T01:56:06;19.40;99.90
13610;DHT22;6876;50.788;4.940;2023-09-08T01:58:55;19.40;99.90
13610;DHT22;6876;50.788;4.940;2023-09-08T02:01:43;19.40;99.90
13610;DHT22;6876;50.788;4.940;2023-09-08T02:04:30;19.40;99.90
13610;DHT22;6876;50.788;4.940;2023-09-08T02:07:17;19.40;99.90
13610;DHT22;6876;50.788;4.940;2023-09-08T02:10:05;19.10;99.90
13610;DHT22;6876;50.788;4.940;2023-09-08T02:12:53;19.00;99.90
13610;DHT22;6876;50.788;4.940;2023-09-08T02:15:41;18.90;99.90
13610;DHT22;6876;50.788;4.940;2023-09-08T02:18:28;18.80;99.90
13610;DHT22;6876;50.788;4.940;2023-09-08T02:21:16;18.80;99.90
13610;DHT22;6876;50.788;4.940;2023-09-08T02:24:04;18.80;99.90
13610;DHT22;6876;50.788;4.940;2023-09-08T02:26:51;18.70;99.90
13610;DHT22;6876;50.788;4.940;2023-09-08T02:29:38;18.70;99.90
13610;DHT22;6876;50.788;4.940;2023-09-08T02:32:27;18.60;99.90
13610;DHT22;6876;50.788;4.940;2023-09-08T02:35:14;18.60;99.90
13610;DHT22;6876;50.788;4.940;2023-09-08T02:38:02;18.60;99.90
13610;DHT22;6876;50.788;4.940;2023-09-08T02:40:49;18.60;99.90
13610;DHT22;6876;50.788;4.940;2023-09-08T02:43:37;18.60;99.90
13610;DHT22;6876;50.788;4.940;2023-09-08T02:46:24;18.60;99.90
13610;DHT22;6876;50.788;4.940;2023-09-08T02:49:12;18.60;99.90
13610;DHT22;6876;50.788;4.940;2023-09-08T02:52:00;18.50;99.90
13610;DHT22;6876;50.788;4.940;2023-09-08T02:54:47;18.60;99.90
13610;DHT22;6876;50.788;4.940;2023-09-08T02:57:34;18.50;99.90
13610;DHT22;6876;50.788;4.940;2023-09-08T03:00:22;18.50;99.90
13610;DHT22;6876;50.788;4.940;2023-09-08T03:03:09;18.50;99.90
13610;DHT22;6876;50.788;4.940;2023-09-08T03:05:57;18.50;99.90
13610;DHT22;6876;50.788;4.940;2023-09-08T03:08:49;18.40;99.90
13610;DHT22;6876;50.788;4.940;2023-09-08T03:11:36;18.30;99.90
13610;DHT22;6876;50.788;4.940;2023-09-08T03:14:24;18.30;99.90
13610;DHT22;6876;50.788;4.940;2023-09-08T03:17:11;18.20;99.90
13610;DHT22;6876;50.788;4.940;2023-09-08T03:19:59;18.10;99.90
13610;DHT22;6876;50.788;4.940;2023-09-08T03:22:47;18.10;99.90
13610;DHT22;6876;50.788;4.940;2023-09-08T03:25:35;18.10;99.90
13610;DHT22;6876;50.788;4.940;2023-09-08T03:28:22;18.10;99.90
13610;DHT22;6876;50.788;4.940;2023-09-08T03:31:09;18.00;99.90
13610;DHT22;6876;50.788;4.940;2023-09-08T03:33:57;18.10;99.90
13610;DHT22;6876;50.788;4.940;2023-09-08T03:36:44;18.00;99.90
13610;DHT22;6876;50.788;4.940;2023-09-08T03:39:33;18.00;99.90
13610;DHT22;6876;50.788;4.940;2023-09-08T03:42:20;18.00;99.90
13610;DHT22;6876;50.788;4.940;2023-09-08T03:45:08;17.90;99.90
13610;DHT22;6876;50.788;4.940;2023-09-08T03:47:55;18.00;99.90
13610;DHT22;6876;50.788;4.940;2023-09-08T03:50:42;18.10;99.90
13610;DHT22;6876;50.788;4.940;2023-09-08T03:53:31;18.20;99.90
13610;DHT22;6876;50.788;4.940;2023-09-08T03:56:20;18.00;99.90
13610;DHT22;6876;50.788;4.940;2023-09-08T03:59:07;18.00;99.90
13610;DHT22;6876;50.788;4.940;2023-09-08T04:01:54;17.90;99.90
13610;DHT22;6876;50.788;4.940;2023-09-08T04:04:42;17.90;99.90
13610;DHT22;6876;50.788;4.940;2023-09-08T04:07:29;17.90;99.90
13610;DHT22;6876;50.788;4.940;2023-09-08T04:10:16;17.80;99.90
13610;DHT22;6876;50.788;4.940;2023-09-08T04:13:05;17.80;99.90
13610;DHT22;6876;50.788;4.940;2023-09-08T04:15:52;17.70;99.90
13610;DHT22;6876;50.788;4.940;2023-09-08T04:18:39;17.80;99.90
13610;DHT22;6876;50.788;4.940;2023-09-08T04:21:27;17.90;99.90
13610;DHT22;6876;50.788;4.940;2023-09-08T04:24:14;17.90;99.90
13610;DHT22;6876;50.788;4.940;2023-09-08T04:27:01;17.80;99.90
13610;DHT22;6876;50.788;4.940;2023-09-08T04:29:50;17.70;99.90
13610;DHT22;6876;50.788;4.940;2023-09-08T04:32:37;17.60;99.90
13610;DHT22;6876;50.788;4.940;2023-09-08T04:35:25;17.60;99.90
13610;DHT22;6876;50.788;4.940;2023-09-08T04:38:12;17.50;99.90
13610;DHT22;6876;50.788;4.940;2023-09-08T04:40:59;17.30;99.90
13610;DHT22;6876;50.788;4.940;2023-09-08T04:43:47;17.20;99.90
13610;DHT22;6876;50.788;4.940;2023-09-08T04:46:36;17.20;99.90
13610;DHT22;6876;50.788;4.940;2023-09-08T04:49:23;17.30;99.90
13610;DHT22;6876;50.788;4.940;2023-09-08T04:52:11;17.30;99.90
13610;DHT22;6876;50.788;4.940;2023-09-08T04:54:58;17.30;99.90
13610;DHT22;6876;50.788;4.940;2023-09-08T04:57:45;17.40;99.90
13610;DHT22;6876;50.788;4.940;2023-09-08T05:00:33;17.50;99.90
13610;DHT22;6876;50.788;4.940;2023-09-08T05:03:22;17.60;99.90
13610;DHT22;6876;50.788;4.940;2023-09-08T05:06:09;17.70;99.90
13610;DHT22;6876;50.788;4.940;2023-09-08T05:08:57;17.60;99.90
13610;DHT22;6876;50.788;4.940;2023-09-08T05:11:45;17.60;99.90
13610;DHT22;6876;50.788;4.940;2023-09-08T05:14:32;17.60;99.90
13610;DHT22;6876;50.788;4.940;2023-09-08T05:17:20;17.60;99.90
13610;DHT22;6876;50.788;4.940;2023-09-08T05:20:09;17.60;99.90
13610;DHT22;6876;50.788;4.940;2023-09-08T05:22:56;17.70;99.90
13610;DHT22;6876;50.788;4.940;2023-09-08T05:25:44;17.80;99.90
13610;DHT22;6876;50.788;4.940;2023-09-08T05:28:32;17.80;99.90
13610;DHT22;6876;50.788;4.940;2023-09-08T05:31:19;17.90;99.90
13610;DHT22;6876;50.788;4.940;2023-09-08T05:34:07;17.90;99.90
13610;DHT22;6876;50.788;4.940;2023-09-08T05:36:55;18.10;99.90
13610;DHT22;6876;50.788;4.940;2023-09-08T05:39:43;18.10;99.90
13610;DHT22;6876;50.788;4.940;2023-09-08T05:42:30;18.10;99.90
13610;DHT22;6876;50.788;4.940;2023-09-08T05:45:18;18.10;99.90
13610;DHT22;6876;50.788;4.940;2023-09-08T05:48:05;18.20;99.90
13610;DHT22;6876;50.788;4.940;2023-09-08T05:50:53;18.30;99.90
13610;DHT22;6876;50.788;4.940;2023-09-08T05:53:41;18.40;99.90
13610;DHT22;6876;50.788;4.940;2023-09-08T05:56:30;18.50;99.90
13610;DHT22;6876;50.788;4.940;2023-09-08T05:59:17;18.60;99.90
13610;DHT22;6876;50.788;4.940;2023-09-08T06:02:05;19.00;45.30
13610;DHT22;6876;50.788;4.940;2023-09-08T06:04:52;19.90;1.00
13610;DHT22;6876;50.788;4.940;2023-09-08T06:07:40;21.10;99.90
13610;DHT22;6876;50.788;4.940;2023-09-08T06:10:29;22.10;99.90
13610;DHT22;6876;50.788;4.940;2023-09-08T06:13:16;22.90;1.00
13610;DHT22;6876;50.788;4.940;2023-09-08T06:16:04;23.60;99.90
13610;DHT22;6876;50.788;4.940;2023-09-08T06:18:51;24.20;99.90
13610;DHT22;6876;50.788;4.940;2023-09-08T06:21:38;24.60;99.90
13610;DHT22;6876;50.788;4.940;2023-09-08T06:24:26;25.00;1.00
13610;DHT22;6876;50.788;4.940;2023-09-08T06:27:15;25.40;99.90
13610;DHT22;6876;50.788;4.940;2023-09-08T06:30:03;25.80;1.00
13610;DHT22;6876;50.788;4.940;2023-09-08T06:32:51;26.40;1.00
13610;DHT22;6876;50.788;4.940;2023-09-08T06:35:38;26.70;1.00
13610;DHT22;6876;50.788;4.940;2023-09-08T06:38:26;26.90;99.90
13610;DHT22;6876;50.788;4.940;2023-09-08T06:41:13;27.30;99.90
13610;DHT22;6876;50.788;4.940;2023-09-08T06:44:02;27.50;99.90
13610;DHT22;6876;50.788;4.940;2023-09-08T06:46:49;27.70;63.50
13610;DHT22;6876;50.788;4.940;2023-09-08T06:49:36;28.10;1.00
13610;DHT22;6876;50.788;4.940;2023-09-08T06:52:23;28.40;1.00
13610;DHT22;6876;50.788;4.940;2023-09-08T06:55:11;28.60;1.00
13610;DHT22;6876;50.788;4.940;2023-09-08T06:57:59;28.90;1.00
13610;DHT22;6876;50.788;4.940;2023-09-08T07:00:49;29.20;1.00
13610;DHT22;6876;50.788;4.940;2023-09-08T07:03:39;29.50;1.00
13610;DHT22;6876;50.788;4.940;2023-09-08T07:06:26;29.90;99.90
13610;DHT22;6876;50.788;4.940;2023-09-08T07:09:13;30.10;99.90
13610;DHT22;6876;50.788;4.940;2023-09-08T07:12:01;30.40;99.90
13610;DHT22;6876;50.788;4.940;2023-09-08T07:14:48;30.60;99.90
13610;DHT22;6876;50.788;4.940;2023-09-08T07:17:37;30.90;99.90
13610;DHT22;6876;50.788;4.940;2023-09-08T07:20:24;31.20;99.90
13610;DHT22;6876;50.788;4.940;2023-09-08T07:23:12;31.40;99.90
13610;DHT22;6876;50.788;4.940;2023-09-08T07:25:59;31.80;99.00
13610;DHT22;6876;50.788;4.940;2023-09-08T07:28:46;32.10;14.90
13610;DHT22;6876;50.788;4.940;2023-09-08T07:31:34;32.20;1.00
13610;DHT22;6876;50.788;4.940;2023-09-08T07:34:23;32.50;1.00
13610;DHT22;6876;50.788;4.940;2023-09-08T07:37:11;33.00;1.00
13610;DHT22;6876;50.788;4.940;2023-09-08T07:39:58;32.80;1.00
13610;DHT22;6876;50.788;4.940;2023-09-08T07:42:46;33.10;1.00
13610;DHT22;6876;50.788;4.940;2023-09-08T07:45:33;33.40;1.00
13610;DHT22;6876;50.788;4.940;2023-09-08T07:48:20;33.60;1.00
13610;DHT22;6876;50.788;4.940;2023-09-08T07:51:09;33.80;99.90
13610;DHT22;6876;50.788;4.940;2023-09-08T07:53:56;34.10;99.90
13610;DHT22;6876;50.788;4.940;2023-09-08T07:56:44;34.30;99.90
13610;DHT22;6876;50.788;4.940;2023-09-08T07:59:31;34.80;99.90
13610;DHT22;6876;50.788;4.940;2023-09-08T08:02:19;34.80;99.90
13610;DHT22;6876;50.788;4.940;2023-09-08T08:05:06;34.90;99.90
13610;DHT22;6876;50.788;4.940;2023-09-08T08:07:55;35.30;99.90
13610;DHT22;6876;50.788;4.940;2023-09-08T08:10:42;35.60;99.90
13610;DHT22;6876;50.788;4.940;2023-09-08T08:13:30;35.80;99.90
13610;DHT22;6876;50.788;4.940;2023-09-08T08:16:17;36.10;99.90
13610;DHT22;6876;50.788;4.940;2023-09-08T08:19:06;35.80;99.90
13610;DHT22;6876;50.788;4.940;2023-09-08T08:21:53;36.20;99.90
13610;DHT22;6876;50.788;4.940;2023-09-08T08:24:44;36.70;99.90
13610;DHT22;6876;50.788;4.940;2023-09-08T08:27:31;37.00;99.90
13610;DHT22;6876;50.788;4.940;2023-09-08T08:30:19;37.10;99.90
13610;DHT22;6876;50.788;4.940;2023-09-08T08:33:06;37.50;99.90
13610;DHT22;6876;50.788;4.940;2023-09-08T08:35:53;37.60;99.90
13610;DHT22;6876;50.788;4.940;2023-09-08T08:38:41;37.60;99.90
13610;DHT22;6876;50.788;4.940;2023-09-08T08:41:30;37.40;99.90
13610;DHT22;6876;50.788;4.940;2023-09-08T08:44:20;37.40;99.90
13610;DHT22;6876;50.788;4.940;2023-09-08T08:47:10;37.80;99.90
13610;DHT22;6876;50.788;4.940;2023-09-08T08:49:59;38.00;99.90
13610;DHT22;6876;50.788;4.940;2023-09-08T08:52:47;37.90;99.90
13610;DHT22;6876;50.788;4.940;2023-09-08T08:55:35;37.80;99.90
13610;DHT22;6876;50.788;4.940;2023-09-08T08:58:23;38.20;99.90
13610;DHT22;6876;50.788;4.940;2023-09-08T09:01:12;38.30;99.90
13610;DHT22;6876;50.788;4.940;2023-09-08T09:04:05;38.20;99.90
13610;DHT22;6876;50.788;4.940;2023-09-08T09:06:53;38.30;99.90
13610;DHT22;6876;50.788;4.940;2023-09-08T09:09:40;38.70;99.90
13610;DHT22;6876;50.788;4.940;2023-09-08T09:12:28;39.00;99.90
13610;DHT22;6876;50.788;4.940;2023-09-08T09:15:28;39.50;99.90
13610;DHT22;6876;50.788;4.940;2023-09-08T09:18:15;39.60;95.40
13610;DHT22;6876;50.788;4.940;2023-09-08T09:21:03;39.80;76.20
13610;DHT22;6876;50.788;4.940;2023-09-08T09:23:50;39.60;52.50
13610;DHT22;6876;50.788;4.940;2023-09-08T09:26:38;39.70;50.70
13610;DHT22;6876;50.788;4.940;2023-09-08T09:29:26;39.90;25.50
13610;DHT22;6876;50.788;4.940;2023-09-08T09:32:16;40.00;19.60
13610;DHT22;6876;50.788;4.940;2023-09-08T09:35:04;40.30;4.10
13610;DHT22;6876;50.788;4.940;2023-09-08T09:37:51;40.20;1.00
13610;DHT22;6876;50.788;4.940;2023-09-08T09:40:40;40.30;1.00
13610;DHT22;6876;50.788;4.940;2023-09-08T09:43:28;40.70;1.00
13610;DHT22;6876;50.788;4.940;2023-09-08T09:46:16;40.60;1.00
13610;DHT22;6876;50.788;4.940;2023-09-08T09:49:10;40.30;1.00
13610;DHT22;6876;50.788;4.940;2023-09-08T09:51:58;40.30;1.00
13610;DHT22;6876;50.788;4.940;2023-09-08T09:54:45;40.10;1.00
13610;DHT22;6876;50.788;4.940;2023-09-08T09:57:33;39.80;1.00
13610;DHT22;6876;50.788;4.940;2023-09-08T10:00:20;39.60;1.00
13610;DHT22;6876;50.788;4.940;2023-09-08T10:03:08;39.30;1.00
13610;DHT22;6876;50.788;4.940;2023-09-08T10:05:59;38.80;1.00
13610;DHT22;6876;50.788;4.940;2023-09-08T10:08:46;38.60;1.00
13610;DHT22;6876;50.788;4.940;2023-09-08T10:11:41;38.50;1.00
13610;DHT22;6876;50.788;4.940;2023-09-08T10:14:29;38.20;1.00
13610;DHT22;6876;50.788;4.940;2023-09-08T10:17:19;37.80;1.00
13610;DHT22;6876;50.788;4.940;2023-09-08T10:20:11;37.60;1.00
13610;DHT22;6876;50.788;4.940;2023-09-08T10:23:06;37.70;1.00
13610;DHT22;6876;50.788;4.940;2023-09-08T10:25:59;37.20;1.00
13610;DHT22;6876;50.788;4.940;2023-09-08T10:28:47;36.80;1.00
13610;DHT22;6876;50.788;4.940;2023-09-08T10:31:35;36.50;1.00
13610;DHT22;6876;50.788;4.940;2023-09-08T10:34:24;36.20;1.00
13610;DHT22;6876;50.788;4.940;2023-09-08T10:37:22;36.20;1.00
13610;DHT22;6876;50.788;4.940;2023-09-08T10:40:27;35.90;1.00
13610;DHT22;6876;50.788;4.940;2023-09-08T10:43:19;35.90;1.00
13610;DHT22;6876;50.788;4.940;2023-09-08T10:46:08;36.00;1.00
13610;DHT22;6876;50.788;4.940;2023-09-08T10:49:01;35.60;1.00
13610;DHT22;6876;50.788;4.940;2023-09-08T10:51:49;35.90;1.00
13610;DHT22;6876;50.788;4.940;2023-09-08T10:54:44;35.90;1.00
13610;DHT22;6876;50.788;4.940;2023-09-08T10:57:33;35.50;1.00
13610;DHT22;6876;50.788;4.940;2023-09-08T11:00:20;35.50;1.00
13610;DHT22;6876;50.788;4.940;2023-09-08T11:03:09;35.70;1.00
13610;DHT22;6876;50.788;4.940;2023-09-08T11:05:57;35.70;1.00
13610;DHT22;6876;50.788;4.940;2023-09-08T11:08:45;35.80;1.00
13610;DHT22;6876;50.788;4.940;2023-09-08T11:11:34;35.70;1.00
13610;DHT22;6876;50.788;4.940;2023-09-08T11:14:25;35.30;1.00
13610;DHT22;6876;50.788;4.940;2023-09-08T11:17:13;34.90;1.00
13610;DHT22;6876;50.788;4.940;2023-09-08T11:20:01;34.80;1.00
13610;DHT22;6876;50.788;4.940;2023-09-08T11:22:53;35.10;1.00
13610;DHT22;6876;50.788;4.940;2023-09-08T11:25:41;35.10;1.00
13610;DHT22;6876;50.788;4.940;2023-09-08T11:28:28;35.00;1.00
13610;DHT22;6876;50.788;4.940;2023-09-08T11:31:17;34.50;1.00
13610;DHT22;6876;50.788;4.940;2023-09-08T11:34:04;34.60;1.00
13610;DHT22;6876;50.788;4.940;2023-09-08T11:36:52;34.90;1.00
13610;DHT22;6876;50.788;4.940;2023-09-08T11:39:40;34.70;1.00
13610;DHT22;6876;50.788;4.940;2023-09-08T11:42:27;34.70;1.00
13610;DHT22;6876;50.788;4.940;2023-09-08T11:45:16;34.50;1.00
13610;DHT22;6876;50.788;4.940;2023-09-08T11:48:09;34.30;1.00
13610;DHT22;6876;50.788;4.940;2023-09-08T11:50:56;34.30;1.00
13610;DHT22;6876;50.788;4.940;2023-09-08T11:53:45;34.20;1.00
13610;DHT22;6876;50.788;4.940;2023-09-08T11:56:32;34.10;1.00
13610;DHT22;6876;50.788;4.940;2023-09-08T11:59:22;34.10;1.00
13610;DHT22;6876;50.788;4.940;2023-09-08T12:02:10;34.20;1.00
13610;DHT22;6876;50.788;4.940;2023-09-08T12:04:59;34.20;1.00
13610;DHT22;6876;50.788;4.940;2023-09-08T12:07:46;33.90;1.00
13610;DHT22;6876;50.788;4.940;2023-09-08T12:10:40;33.50;1.00
13610;DHT22;6876;50.788;4.940;2023-09-08T12:13:27;33.50;1.00
13610;DHT22;6876;50.788;4.940;2023-09-08T12:16:18;33.70;1.00
13610;DHT22;6876;50.788;4.940;2023-09-08T12:19:05;33.60;1.00
13610;DHT22;6876;50.788;4.940;2023-09-08T12:21:56;33.40;1.00
13610;DHT22;6876;50.788;4.940;2023-09-08T12:24:55;33.50;1.00
13610;DHT22;6876;50.788;4.940;2023-09-08T12:27:45;33.70;1.00
13610;DHT22;6876;50.788;4.940;2023-09-08T12:30:33;33.80;1.00
13610;DHT22;6876;50.788;4.940;2023-09-08T12:33:20;33.70;1.00
13610;DHT22;6876;50.788;4.940;2023-09-08T12:36:12;33.50;1.00
13610;DHT22;6876;50.788;4.940;2023-09-08T12:39:03;33.60;1.00
13610;DHT22;6876;50.788;4.940;2023-09-08T12:41:51;33.60;1.00
13610;DHT22;6876;50.788;4.940;2023-09-08T12:44:39;33.30;1.00
13610;DHT22;6876;50.788;4.940;2023-09-08T12:47:26;33.30;1.00
13610;DHT22;6876;50.788;4.940;2023-09-08T12:50:14;33.30;1.00
13610;DHT22;6876;50.788;4.940;2023-09-08T12:53:01;33.20;1.00
13610;DHT22;6876;50.788;4.940;2023-09-08T12:55:50;33.30;1.00
13610;DHT22;6876;50.788;4.940;2023-09-08T12:58:37;33.30;1.00
13610;DHT22;6876;50.788;4.940;2023-09-08T13:01:24;33.40;1.00
13610;DHT22;6876;50.788;4.940;2023-09-08T13:04:12;33.40;1.00
13610;DHT22;6876;50.788;4.940;2023-09-08T13:06:59;33.20;1.00
13610;DHT22;6876;50.788;4.940;2023-09-08T13:09:47;33.20;1.00
13610;DHT22;6876;50.788;4.940;2023-09-08T13:12:36;33.30;1.00
13610;DHT22;6876;50.788;4.940;2023-09-08T13:15:23;33.10;1.00
13610;DHT22;6876;50.788;4.940;2023-09-08T13:18:10;33.10;1.00
13610;DHT22;6876;50.788;4.940;2023-09-08T13:20:57;33.00;1.00
13610;DHT22;6876;50.788;4.940;2023-09-08T13:23:45;32.90;1.00
13610;DHT22;6876;50.788;4.940;2023-09-08T13:26:32;32.70;1.00
13610;DHT22;6876;50.788;4.940;2023-09-08T13:29:21;32.60;1.00
13610;DHT22;6876;50.788;4.940;2023-09-08T13:32:09;32.80;1.00
13610;DHT22;6876;50.788;4.940;2023-09-08T13:34:56;32.70;1.00
13610;DHT22;6876;50.788;4.940;2023-09-08T13:37:43;32.70;1.00
13610;DHT22;6876;50.788;4.940;2023-09-08T13:40:31;32.70;1.00
13610;DHT22;6876;50.788;4.940;2023-09-08T13:43:18;32.70;1.00
13610;DHT22;6876;50.788;4.940;2023-09-08T13:46:07;32.60;1.00
13610;DHT22;6876;50.788;4.940;2023-09-08T13:48:54;32.70;1.00
13610;DHT22;6876;50.788;4.940;2023-09-08T13:51:41;32.70;1.00
13610;DHT22;6876;50.788;4.940;2023-09-08T13:54:29;32.70;1.00
13610;DHT22;6876;50.788;4.940;2023-09-08T13:57:16;32.70;1.00
13610;DHT22;6876;50.788;4.940;2023-09-08T14:00:06;32.80;1.00
13610;DHT22;6876;50.788;4.940;2023-09-08T14:02:55;32.60;1.00
13610;DHT22;6876;50.788;4.940;2023-09-08T14:05:43;32.50;1.00
13610;DHT22;6876;50.788;4.940;2023-09-08T14:08:30;32.60;1.00
13610;DHT22;6876;50.788;4.940;2023-09-08T14:11:22;32.60;1.00
13610;DHT22;6876;50.788;4.940;2023-09-08T14:14:11;32.50;1.00
13610;DHT22;6876;50.788;4.940;2023-09-08T14:16:58;32.50;1.00
13610;DHT22;6876;50.788;4.940;2023-09-08T14:19:47;32.50;1.00
13610;DHT22;6876;50.788;4.940;2023-09-08T14:22:34;32.50;1.00
13610;DHT22;6876;50.788;4.940;2023-09-08T14:25:21;32.60;1.00
13610;DHT22;6876;50.788;4.940;2023-09-08T14:28:08;32.50;1.00
13610;DHT22;6876;50.788;4.940;2023-09-08T14:30:56;32.50;1.00
13610;DHT22;6876;50.788;4.940;2023-09-08T14:33:43;32.60;1.00
13610;DHT22;6876;50.788;4.940;2023-09-08T14:36:32;32.70;1.00
13610;DHT22;6876;50.788;4.940;2023-09-08T14:39:19;32.70;1.00
13610;DHT22;6876;50.788;4.940;2023-09-08T14:42:06;32.70;1.00
13610;DHT22;6876;50.788;4.940;2023-09-08T14:44:55;32.60;1.00
13610;DHT22;6876;50.788;4.940;2023-09-08T14:47:43;32.50;1.00
13610;DHT22;6876;50.788;4.940;2023-09-08T14:50:31;32.40;1.00
13610;DHT22;6876;50.788;4.940;2023-09-08T14:53:19;32.40;1.00
13610;DHT22;6876;50.788;4.940;2023-09-08T14:56:07;32.40;1.00
13610;DHT22;6876;50.788;4.940;2023-09-08T14:58:54;32.50;1.00
13610;DHT22;6876;50.788;4.940;2023-09-08T15:01:41;32.40;1.00
13610;DHT22;6876;50.788;4.940;2023-09-08T15:04:30;32.40;1.00
13610;DHT22;6876;50.788;4.940;2023-09-08T15:07:18;32.30;1.00
13610;DHT22;6876;50.788;4.940;2023-09-08T15:10:07;32.30;1.00
13610;DHT22;6876;50.788;4.940;2023-09-08T15:12:54;32.10;1.00
13610;DHT22;6876;50.788;4.940;2023-09-08T15:15:42;32.10;1.00
13610;DHT22;6876;50.788;4.940;2023-09-08T15:18:30;32.00;1.00
13610;DHT22;6876;50.788;4.940;2023-09-08T15:21:17;32.00;1.00
13610;DHT22;6876;50.788;4.940;2023-09-08T15:24:10;32.00;1.00
13610;DHT22;6876;50.788;4.940;2023-09-08T15:26:58;32.00;1.00
13610;DHT22;6876;50.788;4.940;2023-09-08T15:29:46;31.90;1.00
13610;DHT22;6876;50.788;4.940;2023-09-08T15:32:33;31.90;1.00
13610;DHT22;6876;50.788;4.940;2023-09-08T15:35:20;31.90;1.00
13610;DHT22;6876;50.788;4.940;2023-09-08T15:38:08;31.80;1.00
13610;DHT22;6876;50.788;4.940;2023-09-08T15:41:14;31.90;1.00
13610;DHT22;6876;50.788;4.940;2023-09-08T15:44:05;31.90;1.00
13610;DHT22;6876;50.788;4.940;2023-09-08T15:46:52;31.80;1.00
13610;DHT22;6876;50.788;4.940;2023-09-08T15:49:40;31.80;1.00
13610;DHT22;6876;50.788;4.940;2023-09-08T15:52:27;31.70;1.00
13610;DHT22;6876;50.788;4.940;2023-09-08T15:55:15;31.60;1.00
13610;DHT22;6876;50.788;4.940;2023-09-08T15:58:02;31.60;1.00
13610;DHT22;6876;50.788;4.940;2023-09-08T16:00:51;31.60;1.00
13610;DHT22;6876;50.788;4.940;2023-09-08T16:03:38;31.70;1.00
13610;DHT22;6876;50.788;4.940;2023-09-08T16:06:25;31.60;1.00
13610;DHT22;6876;50.788;4.940;2023-09-08T16:09:13;31.40;1.00
13610;DHT22;6876;50.788;4.940;2023-09-08T16:12:00;31.30;1.00
13610;DHT22;6876;50.788;4.940;2023-09-08T16:14:47;31.20;1.00
13610;DHT22;6876;50.788;4.940;2023-09-08T16:17:36;31.20;1.00
13610;DHT22;6876;50.788;4.940;2023-09-08T16:20:24;31.10;1.00
13610;DHT22;6876;50.788;4.940;2023-09-08T16:23:11;31.20;1.00
13610;DHT22;6876;50.788;4.940;2023-09-08T16:25:58;31.20;1.00
13610;DHT22;6876;50.788;4.940;2023-09-08T16:28:46;31.10;1.00
13610;DHT22;6876;50.788;4.940;2023-09-08T16:31:33;31.10;1.00
13610;DHT22;6876;50.788;4.940;2023-09-08T16:34:22;31.00;1.00
13610;DHT22;6876;50.788;4.940;2023-09-08T16:37:09;30.90;1.00
13610;DHT22;6876;50.788;4.940;2023-09-08T16:39:57;30.80;1.00
13610;DHT22;6876;50.788;4.940;2023-09-08T16:42:44;30.80;1.00
13610;DHT22;6876;50.788;4.940;2023-09-08T16:45:32;30.80;1.00
13610;DHT22;6876;50.788;4.940;2023-09-08T16:48:19;30.70;1.00
13610;DHT22;6876;50.788;4.940;2023-09-08T16:51:08;30.70;1.00
13610;DHT22;6876;50.788;4.940;2023-09-08T16:53:56;30.60;1.00
13610;DHT22;6876;50.788;4.940;2023-09-08T16:56:44;30.60;1.00
13610;DHT22;6876;50.788;4.940;2023-09-08T16:59:31;30.50;10.80
13610;DHT22;6876;50.788;4.940;2023-09-08T17:02:18;30.40;22.90
13610;DHT22;6876;50.788;4.940;2023-09-08T17:05:06;30.40;31.20
13610;DHT22;6876;50.788;4.940;2023-09-08T17:07:55;30.30;40.60
13610;DHT22;6876;50.788;4.940;2023-09-08T17:10:43;30.20;86.50
13610;DHT22;6876;50.788;4.940;2023-09-08T17:13:34;30.10;98.00
13610;DHT22;6876;50.788;4.940;2023-09-08T17:16:21;30.00;98.80
13610;DHT22;6876;50.788;4.940;2023-09-08T17:19:09;29.90;99.90
13610;DHT22;6876;50.788;4.940;2023-09-08T17:21:57;29.80;99.90
13610;DHT22;6876;50.788;4.940;2023-09-08T17:24:49;29.70;99.90
13610;DHT22;6876;50.788;4.940;2023-09-08T17:27:37;29.50;99.90
13610;DHT22;6876;50.788;4.940;2023-09-08T17:30:24;29.40;99.90
13610;DHT22;6876;50.788;4.940;2023-09-08T17:33:11;29.40;99.90
13610;DHT22;6876;50.788;4.940;2023-09-08T17:35:59;29.40;99.90
13610;DHT22;6876;50.788;4.940;2023-09-08T17:38:46;29.30;99.90
13610;DHT22;6876;50.788;4.940;2023-09-08T17:41:35;29.10;99.90
13610;DHT22;6876;50.788;4.940;2023-09-08T17:44:23;29.00;99.90
13610;DHT22;6876;50.788;4.940;2023-09-08T17:47:10;29.00;99.90
13610;DHT22;6876;50.788;4.940;2023-09-08T17:49:57;28.70;99.90
13610;DHT22;6876;50.788;4.940;2023-09-08T17:52:44;28.50;1.00
13610;DHT22;6876;50.788;4.940;2023-09-08T17:55:32;28.30;99.90
13610;DHT22;6876;50.788;4.940;2023-09-08T17:58:20;28.20;99.90
13610;DHT22;6876;50.788;4.940;2023-09-08T18:01:08;28.10;1.00
13610;DHT22;6876;50.788;4.940;2023-09-08T18:03:55;28.00;52.60
13610;DHT22;6876;50.788;4.940;2023-09-08T18:06:42;27.90;99.90
13610;DHT22;6876;50.788;4.940;2023-09-08T18:09:29;27.70;1.00